sensor_id;sensor_type;location;lat;lon;timestamp;P1;durP1;ratioP1;P2;durP2;ratioP2
11141;SDS011;5625;50.122;19.864;2022-07-05T00:01:47;1.77;;;1.50;;
11141;SDS011;5625;50.122;19.864;2022-07-05T00:04:15;1.60;;;1.50;;
11141;SDS011;5625;50.122;19.864;2022-07-05T00:06:43;1.80;;;1.70;;
11141;SDS011;5625;50.122;19.864;2022-07-05T00:09:25;1.50;;;1.40;;
11141;SDS011;5625;50.122;19.864;2022-07-05T00:11:54;1.57;;;1.47;;
11141;SDS011;5625;50.122;19.864;2022-07-05T00:14:22;1.70;;;1.60;;
11141;SDS011;5625;50.122;19.864;2022-07-05T00:16:51;2.77;;;1.30;;
11141;SDS011;5625;50.122;19.864;2022-07-05T00:19:19;2.13;;;1.47;;
11141;SDS011;5625;50.122;19.864;2022-07-05T00:21:47;2.00;;;1.50;;
11141;SDS011;5625;50.122;19.864;2022-07-05T00:24:15;1.83;;;1.73;;
11141;SDS011;5625;50.122;19.864;2022-07-05T00:26:43;2.23;;;1.53;;
11141;SDS011;5625;50.122;19.864;2022-07-05T00:29:13;1.67;;;1.57;;
11141;SDS011;5625;50.122;19.864;2022-07-05T00:31:41;2.40;;;1.60;;
11141;SDS011;5625;50.122;19.864;2022-07-05T00:34:09;1.83;;;1.73;;
11141;SDS011;5625;50.122;19.864;2022-07-05T00:36:38;2.20;;;2.00;;
11141;SDS011;5625;50.122;19.864;2022-07-05T00:39:06;3.53;;;2.03;;
11141;SDS011;5625;50.122;19.864;2022-07-05T00:41:35;2.80;;;1.80;;
11141;SDS011;5625;50.122;19.864;2022-07-05T00:44:04;1.70;;;1.60;;
11141;SDS011;5625;50.122;19.864;2022-07-05T00:46:36;2.40;;;1.90;;
11141;SDS011;5625;50.122;19.864;2022-07-05T00:49:06;2.33;;;2.10;;
11141;SDS011;5625;50.122;19.864;2022-07-05T00:51:35;2.10;;;1.90;;
11141;SDS011;5625;50.122;19.864;2022-07-05T00:54:24;2.10;;;2.00;;
11141;SDS011;5625;50.122;19.864;2022-07-05T00:56:52;2.73;;;2.00;;
11141;SDS011;5625;50.122;19.864;2022-07-05T00:59:24;2.37;;;2.20;;
11141;SDS011;5625;50.122;19.864;2022-07-05T01:01:53;2.20;;;2.07;;
11141;SDS011;5625;50.122;19.864;2022-07-05T01:04:22;3.70;;;2.50;;
11141;SDS011;5625;50.122;19.864;2022-07-05T01:06:51;2.83;;;2.63;;
11141;SDS011;5625;50.122;19.864;2022-07-05T01:09:20;3.60;;;2.63;;
11141;SDS011;5625;50.122;19.864;2022-07-05T01:11:50;3.67;;;3.10;;
11141;SDS011;5625;50.122;19.864;2022-07-05T01:14:21;3.13;;;2.93;;
11141;SDS011;5625;50.122;19.864;2022-07-05T01:16:50;3.17;;;2.97;;
11141;SDS011;5625;50.122;19.864;2022-07-05T01:19:21;3.43;;;2.60;;
11141;SDS011;5625;50.122;19.864;2022-07-05T01:21:49;3.67;;;2.83;;
11141;SDS011;5625;50.122;19.864;2022-07-05T01:24:19;5.40;;;2.60;;
11141;SDS011;5625;50.122;19.864;2022-07-05T01:26:48;3.43;;;2.80;;
11141;SDS011;5625;50.122;19.864;2022-07-05T01:29:17;3.27;;;2.57;;
11141;SDS011;5625;50.122;19.864;2022-07-05T01:31:45;2.80;;;2.60;;
11141;SDS011;5625;50.122;19.864;2022-07-05T01:34:13;2.93;;;2.60;;
11141;SDS011;5625;50.122;19.864;2022-07-05T01:36:41;2.67;;;2.50;;
11141;SDS011;5625;50.122;19.864;2022-07-05T01:39:10;2.83;;;2.70;;
11141;SDS011;5625;50.122;19.864;2022-07-05T01:41:39;2.70;;;2.50;;
11141;SDS011;5625;50.122;19.864;2022-07-05T01:44:07;2.73;;;2.53;;
11141;SDS011;5625;50.122;19.864;2022-07-05T01:46:35;3.13;;;2.77;;
11141;SDS011;5625;50.122;19.864;2022-07-05T01:49:06;3.03;;;2.57;;
11141;SDS011;5625;50.122;19.864;2022-07-05T01:51:40;3.67;;;2.53;;
11141;SDS011;5625;50.122;19.864;2022-07-05T01:54:12;2.37;;;2.23;;
11141;SDS011;5625;50.122;19.864;2022-07-05T01:56:41;2.80;;;2.67;;
11141;SDS011;5625;50.122;19.864;2022-07-05T01:59:09;2.87;;;2.57;;
11141;SDS011;5625;50.122;19.864;2022-07-05T02:01:40;3.33;;;2.60;;
11141;SDS011;5625;50.122;19.864;2022-07-05T02:04:08;2.80;;;2.60;;
11141;SDS011;5625;50.122;19.864;2022-07-05T02:06:37;3.37;;;2.40;;
11141;SDS011;5625;50.122;19.864;2022-07-05T02:09:06;3.73;;;2.40;;
11141;SDS011;5625;50.122;19.864;2022-07-05T02:11:35;2.80;;;2.20;;
11141;SDS011;5625;50.122;19.864;2022-07-05T02:14:04;2.60;;;2.40;;
11141;SDS011;5625;50.122;19.864;2022-07-05T02:16:32;2.30;;;2.10;;
11141;SDS011;5625;50.122;19.864;2022-07-05T02:19:01;2.60;;;2.40;;
11141;SDS011;5625;50.122;19.864;2022-07-05T02:21:29;2.20;;;2.10;;
11141;SDS011;5625;50.122;19.864;2022-07-05T02:23:57;2.30;;;2.20;;
11141;SDS011;5625;50.122;19.864;2022-07-05T02:26:25;2.37;;;2.17;;
11141;SDS011;5625;50.122;19.864;2022-07-05T02:28:53;2.20;;;2.10;;
11141;SDS011;5625;50.122;19.864;2022-07-05T02:31:23;2.50;;;2.27;;
11141;SDS011;5625;50.122;19.864;2022-07-05T02:33:51;5.77;;;2.90;;
11141;SDS011;5625;50.122;19.864;2022-07-05T02:36:19;2.67;;;2.47;;
11141;SDS011;5625;50.122;19.864;2022-07-05T02:38:47;3.13;;;2.60;;
11141;SDS011;5625;50.122;19.864;2022-07-05T02:41:15;2.73;;;2.53;;
11141;SDS011;5625;50.122;19.864;2022-07-05T02:43:43;2.67;;;2.47;;
11141;SDS011;5625;50.122;19.864;2022-07-05T02:46:12;2.90;;;2.60;;
11141;SDS011;5625;50.122;19.864;2022-07-05T02:48:41;2.90;;;2.63;;
11141;SDS011;5625;50.122;19.864;2022-07-05T02:51:09;3.17;;;2.63;;
11141;SDS011;5625;50.122;19.864;2022-07-05T02:53:38;3.10;;;2.70;;
11141;SDS011;5625;50.122;19.864;2022-07-05T02:56:06;3.30;;;3.00;;
11141;SDS011;5625;50.122;19.864;2022-07-05T02:58:34;2.87;;;2.67;;
11141;SDS011;5625;50.122;19.864;2022-07-05T03:01:04;2.87;;;2.57;;
11141;SDS011;5625;50.122;19.864;2022-07-05T03:03:32;4.20;;;2.80;;
11141;SDS011;5625;50.122;19.864;2022-07-05T03:06:01;2.77;;;2.57;;
11141;SDS011;5625;50.122;19.864;2022-07-05T03:08:29;3.60;;;2.97;;
11141;SDS011;5625;50.122;19.864;2022-07-05T03:10:57;2.60;;;2.40;;
11141;SDS011;5625;50.122;19.864;2022-07-05T03:13:26;4.17;;;2.70;;
11141;SDS011;5625;50.122;19.864;2022-07-05T03:15:54;3.27;;;2.60;;
11141;SDS011;5625;50.122;19.864;2022-07-05T03:18:22;3.00;;;2.70;;
11141;SDS011;5625;50.122;19.864;2022-07-05T03:20:50;3.53;;;3.10;;
11141;SDS011;5625;50.122;19.864;2022-07-05T03:23:19;2.97;;;2.77;;
11141;SDS011;5625;50.122;19.864;2022-07-05T03:25:47;3.20;;;3.00;;
11141;SDS011;5625;50.122;19.864;2022-07-05T03:28:15;3.70;;;3.10;;
11141;SDS011;5625;50.122;19.864;2022-07-05T03:30:44;3.10;;;2.90;;
11141;SDS011;5625;50.122;19.864;2022-07-05T03:33:12;3.47;;;3.03;;
11141;SDS011;5625;50.122;19.864;2022-07-05T03:35:40;3.20;;;2.97;;
11141;SDS011;5625;50.122;19.864;2022-07-05T03:38:08;3.40;;;3.20;;
11141;SDS011;5625;50.122;19.864;2022-07-05T03:40:37;4.07;;;3.67;;
11141;SDS011;5625;50.122;19.864;2022-07-05T03:43:08;3.60;;;3.30;;
11141;SDS011;5625;50.122;19.864;2022-07-05T03:45:36;3.60;;;3.40;;
11141;SDS011;5625;50.122;19.864;2022-07-05T03:48:05;3.23;;;2.93;;
11141;SDS011;5625;50.122;19.864;2022-07-05T03:50:53;3.30;;;3.00;;
11141;SDS011;5625;50.122;19.864;2022-07-05T03:53:21;3.23;;;3.03;;
11141;SDS011;5625;50.122;19.864;2022-07-05T03:55:51;3.70;;;3.30;;
11141;SDS011;5625;50.122;19.864;2022-07-05T03:58:19;3.40;;;3.20;;
11141;SDS011;5625;50.122;19.864;2022-07-05T04:00:47;3.80;;;3.50;;
11141;SDS011;5625;50.122;19.864;2022-07-05T04:03:15;5.90;;;3.60;;
11141;SDS011;5625;50.122;19.864;2022-07-05T04:05:43;3.43;;;3.13;;
11141;SDS011;5625;50.122;19.864;2022-07-05T04:08:11;4.10;;;3.17;;
11141;SDS011;5625;50.122;19.864;2022-07-05T04:10:39;3.27;;;3.07;;
11141;SDS011;5625;50.122;19.864;2022-07-05T04:13:09;4.40;;;3.30;;
11141;SDS011;5625;50.122;19.864;2022-07-05T04:15:37;3.70;;;3.40;;
11141;SDS011;5625;50.122;19.864;2022-07-05T04:18:05;3.80;;;3.60;;
11141;SDS011;5625;50.122;19.864;2022-07-05T04:20:33;3.73;;;3.40;;
11141;SDS011;5625;50.122;19.864;2022-07-05T04:23:01;5.27;;;3.70;;
11141;SDS011;5625;50.122;19.864;2022-07-05T04:25:30;3.97;;;3.67;;
11141;SDS011;5625;50.122;19.864;2022-07-05T04:27:58;4.73;;;4.33;;
11141;SDS011;5625;50.122;19.864;2022-07-05T04:30:28;4.20;;;3.90;;
11141;SDS011;5625;50.122;19.864;2022-07-05T04:32:56;4.67;;;3.90;;
11141;SDS011;5625;50.122;19.864;2022-07-05T04:35:24;4.37;;;3.97;;
11141;SDS011;5625;50.122;19.864;2022-07-05T04:37:52;4.10;;;3.80;;
11141;SDS011;5625;50.122;19.864;2022-07-05T04:40:21;5.70;;;4.43;;
11141;SDS011;5625;50.122;19.864;2022-07-05T04:42:49;5.80;;;4.30;;
11141;SDS011;5625;50.122;19.864;2022-07-05T04:45:17;4.10;;;3.80;;
11141;SDS011;5625;50.122;19.864;2022-07-05T04:47:46;5.13;;;4.63;;
11141;SDS011;5625;50.122;19.864;2022-07-05T04:50:15;5.13;;;4.23;;
11141;SDS011;5625;50.122;19.864;2022-07-05T04:52:43;5.17;;;4.50;;
11141;SDS011;5625;50.122;19.864;2022-07-05T04:55:11;5.07;;;3.93;;
11141;SDS011;5625;50.122;19.864;2022-07-05T04:57:39;4.57;;;4.17;;
11141;SDS011;5625;50.122;19.864;2022-07-05T05:00:09;4.53;;;4.10;;
11141;SDS011;5625;50.122;19.864;2022-07-05T05:02:39;5.03;;;4.63;;
11141;SDS011;5625;50.122;19.864;2022-07-05T05:05:11;5.10;;;4.53;;
11141;SDS011;5625;50.122;19.864;2022-07-05T05:07:42;6.30;;;5.40;;
11141;SDS011;5625;50.122;19.864;2022-07-05T05:10:11;6.27;;;5.27;;
11141;SDS011;5625;50.122;19.864;2022-07-05T05:12:40;5.77;;;5.00;;
11141;SDS011;5625;50.122;19.864;2022-07-05T05:15:08;6.37;;;4.90;;
11141;SDS011;5625;50.122;19.864;2022-07-05T05:17:36;4.50;;;4.20;;
11141;SDS011;5625;50.122;19.864;2022-07-05T05:20:06;5.30;;;4.60;;
11141;SDS011;5625;50.122;19.864;2022-07-05T05:22:38;4.20;;;3.77;;
11141;SDS011;5625;50.122;19.864;2022-07-05T05:25:07;4.47;;;4.07;;
11141;SDS011;5625;50.122;19.864;2022-07-05T05:27:39;4.40;;;4.00;;
11141;SDS011;5625;50.122;19.864;2022-07-05T05:30:14;4.80;;;4.40;;
11141;SDS011;5625;50.122;19.864;2022-07-05T05:32:42;5.47;;;3.97;;
11141;SDS011;5625;50.122;19.864;2022-07-05T05:35:10;5.43;;;4.20;;
11141;SDS011;5625;50.122;19.864;2022-07-05T05:37:46;4.70;;;3.53;;
11141;SDS011;5625;50.122;19.864;2022-07-05T05:40:16;5.83;;;3.60;;
11141;SDS011;5625;50.122;19.864;2022-07-05T05:42:44;5.20;;;4.17;;
11141;SDS011;5625;50.122;19.864;2022-07-05T05:45:12;8.87;;;5.20;;
11141;SDS011;5625;50.122;19.864;2022-07-05T05:47:47;6.83;;;4.67;;
11141;SDS011;5625;50.122;19.864;2022-07-05T05:50:17;7.53;;;4.90;;
11141;SDS011;5625;50.122;19.864;2022-07-05T05:52:47;7.10;;;4.57;;
11141;SDS011;5625;50.122;19.864;2022-07-05T05:55:16;4.77;;;4.23;;
11141;SDS011;5625;50.122;19.864;2022-07-05T05:57:45;6.73;;;4.73;;
11141;SDS011;5625;50.122;19.864;2022-07-05T06:00:13;5.00;;;4.60;;
11141;SDS011;5625;50.122;19.864;2022-07-05T06:02:43;4.80;;;4.40;;
11141;SDS011;5625;50.122;19.864;2022-07-05T06:05:12;4.93;;;4.10;;
11141;SDS011;5625;50.122;19.864;2022-07-05T06:07:52;4.50;;;4.10;;
11141;SDS011;5625;50.122;19.864;2022-07-05T06:10:22;4.97;;;3.83;;
11141;SDS011;5625;50.122;19.864;2022-07-05T06:12:52;4.83;;;4.43;;
11141;SDS011;5625;50.122;19.864;2022-07-05T06:15:21;5.13;;;4.63;;
11141;SDS011;5625;50.122;19.864;2022-07-05T06:17:49;4.40;;;3.97;;
11141;SDS011;5625;50.122;19.864;2022-07-05T06:20:19;6.53;;;4.47;;
11141;SDS011;5625;50.122;19.864;2022-07-05T06:22:50;4.70;;;4.23;;
11141;SDS011;5625;50.122;19.864;2022-07-05T06:25:19;4.50;;;4.10;;
11141;SDS011;5625;50.122;19.864;2022-07-05T06:27:51;7.80;;;4.43;;
11141;SDS011;5625;50.122;19.864;2022-07-05T06:30:27;6.57;;;4.47;;
11141;SDS011;5625;50.122;19.864;2022-07-05T06:32:56;8.23;;;5.50;;
11141;SDS011;5625;50.122;19.864;2022-07-05T06:35:24;7.70;;;5.00;;
11141;SDS011;5625;50.122;19.864;2022-07-05T06:37:55;7.07;;;4.93;;
11141;SDS011;5625;50.122;19.864;2022-07-05T06:40:28;11.00;;;5.63;;
11141;SDS011;5625;50.122;19.864;2022-07-05T06:42:58;9.53;;;5.23;;
11141;SDS011;5625;50.122;19.864;2022-07-05T06:45:28;6.23;;;5.40;;
11141;SDS011;5625;50.122;19.864;2022-07-05T06:47:57;8.17;;;5.13;;
11141;SDS011;5625;50.122;19.864;2022-07-05T06:50:26;7.67;;;4.73;;
11141;SDS011;5625;50.122;19.864;2022-07-05T06:52:57;6.17;;;4.77;;
11141;SDS011;5625;50.122;19.864;2022-07-05T06:55:25;7.10;;;5.23;;
11141;SDS011;5625;50.122;19.864;2022-07-05T06:57:57;6.27;;;4.97;;
11141;SDS011;5625;50.122;19.864;2022-07-05T07:00:42;5.37;;;4.83;;
11141;SDS011;5625;50.122;19.864;2022-07-05T07:03:30;6.03;;;5.10;;
11141;SDS011;5625;50.122;19.864;2022-07-05T07:06:19;6.37;;;5.17;;
11141;SDS011;5625;50.122;19.864;2022-07-05T07:08:49;5.70;;;5.20;;
11141;SDS011;5625;50.122;19.864;2022-07-05T07:11:33;7.63;;;5.10;;
11141;SDS011;5625;50.122;19.864;2022-07-05T07:14:01;8.00;;;5.67;;
11141;SDS011;5625;50.122;19.864;2022-07-05T07:16:30;5.97;;;5.33;;
11141;SDS011;5625;50.122;19.864;2022-07-05T07:18:58;5.53;;;4.93;;
11141;SDS011;5625;50.122;19.864;2022-07-05T07:21:38;5.83;;;5.30;;
11141;SDS011;5625;50.122;19.864;2022-07-05T07:24:08;5.57;;;5.10;;
11141;SDS011;5625;50.122;19.864;2022-07-05T07:26:37;6.17;;;5.67;;
11141;SDS011;5625;50.122;19.864;2022-07-05T07:29:22;6.10;;;5.60;;
11141;SDS011;5625;50.122;19.864;2022-07-05T07:31:50;8.80;;;5.47;;
11141;SDS011;5625;50.122;19.864;2022-07-05T07:34:18;6.00;;;5.40;;
11141;SDS011;5625;50.122;19.864;2022-07-05T07:36:49;6.10;;;5.60;;
11141;SDS011;5625;50.122;19.864;2022-07-05T07:39:19;5.10;;;4.70;;
11141;SDS011;5625;50.122;19.864;2022-07-05T07:41:47;6.13;;;5.53;;
11141;SDS011;5625;50.122;19.864;2022-07-05T07:44:15;5.47;;;4.97;;
11141;SDS011;5625;50.122;19.864;2022-07-05T07:46:44;6.27;;;5.77;;
11141;SDS011;5625;50.122;19.864;2022-07-05T07:49:12;7.47;;;6.07;;
11141;SDS011;5625;50.122;19.864;2022-07-05T07:51:43;8.67;;;5.70;;
11141;SDS011;5625;50.122;19.864;2022-07-05T07:54:11;5.77;;;5.27;;
11141;SDS011;5625;50.122;19.864;2022-07-05T07:56:41;7.03;;;5.13;;
11141;SDS011;5625;50.122;19.864;2022-07-05T07:59:10;6.20;;;5.70;;
11141;SDS011;5625;50.122;19.864;2022-07-05T08:01:38;6.03;;;5.47;;
11141;SDS011;5625;50.122;19.864;2022-07-05T08:04:10;6.10;;;5.50;;
11141;SDS011;5625;50.122;19.864;2022-07-05T08:06:41;6.00;;;5.40;;
11141;SDS011;5625;50.122;19.864;2022-07-05T08:09:09;5.57;;;5.17;;
11141;SDS011;5625;50.122;19.864;2022-07-05T08:11:44;5.00;;;4.60;;
11141;SDS011;5625;50.122;19.864;2022-07-05T08:14:13;5.93;;;4.90;;
11141;SDS011;5625;50.122;19.864;2022-07-05T08:16:41;5.17;;;4.67;;
11141;SDS011;5625;50.122;19.864;2022-07-05T08:19:17;5.60;;;5.10;;
11141;SDS011;5625;50.122;19.864;2022-07-05T08:22:03;5.20;;;4.80;;
11141;SDS011;5625;50.122;19.864;2022-07-05T08:24:34;5.10;;;4.47;;
11141;SDS011;5625;50.122;19.864;2022-07-05T08:27:04;5.97;;;4.93;;
11141;SDS011;5625;50.122;19.864;2022-07-05T08:29:33;4.90;;;4.37;;
11141;SDS011;5625;50.122;19.864;2022-07-05T08:32:02;5.13;;;4.60;;
11141;SDS011;5625;50.122;19.864;2022-07-05T08:34:31;4.93;;;4.43;;
11141;SDS011;5625;50.122;19.864;2022-07-05T08:37:00;5.50;;;5.00;;
11141;SDS011;5625;50.122;19.864;2022-07-05T08:39:28;5.07;;;4.67;;
11141;SDS011;5625;50.122;19.864;2022-07-05T08:41:57;5.50;;;5.00;;
11141;SDS011;5625;50.122;19.864;2022-07-05T08:44:28;5.07;;;4.60;;
11141;SDS011;5625;50.122;19.864;2022-07-05T08:47:01;5.87;;;5.37;;
11141;SDS011;5625;50.122;19.864;2022-07-05T08:49:30;5.77;;;5.30;;
11141;SDS011;5625;50.122;19.864;2022-07-05T08:52:01;6.07;;;5.50;;
11141;SDS011;5625;50.122;19.864;2022-07-05T08:54:31;5.23;;;4.77;;
11141;SDS011;5625;50.122;19.864;2022-07-05T08:57:01;5.93;;;5.43;;
11141;SDS011;5625;50.122;19.864;2022-07-05T08:59:40;6.50;;;5.23;;
11141;SDS011;5625;50.122;19.864;2022-07-05T09:02:11;5.77;;;5.30;;
11141;SDS011;5625;50.122;19.864;2022-07-05T09:04:43;6.17;;;5.57;;
11141;SDS011;5625;50.122;19.864;2022-07-05T09:07:14;6.97;;;5.50;;
11141;SDS011;5625;50.122;19.864;2022-07-05T09:09:45;7.33;;;6.63;;
11141;SDS011;5625;50.122;19.864;2022-07-05T09:12:16;7.07;;;6.17;;
11141;SDS011;5625;50.122;19.864;2022-07-05T09:14:50;6.07;;;5.47;;
11141;SDS011;5625;50.122;19.864;2022-07-05T09:17:19;6.17;;;5.57;;
11141;SDS011;5625;50.122;19.864;2022-07-05T09:19:51;6.50;;;5.90;;
11141;SDS011;5625;50.122;19.864;2022-07-05T09:22:45;6.43;;;5.83;;
11141;SDS011;5625;50.122;19.864;2022-07-05T09:25:16;6.87;;;6.27;;
11141;SDS011;5625;50.122;19.864;2022-07-05T09:27:49;6.37;;;5.77;;
11141;SDS011;5625;50.122;19.864;2022-07-05T09:30:33;5.83;;;5.33;;
11141;SDS011;5625;50.122;19.864;2022-07-05T09:33:07;5.37;;;4.97;;
11141;SDS011;5625;50.122;19.864;2022-07-05T09:35:36;5.57;;;5.03;;
11141;SDS011;5625;50.122;19.864;2022-07-05T09:38:16;6.10;;;5.50;;
11141;SDS011;5625;50.122;19.864;2022-07-05T09:40:45;5.13;;;4.73;;
11141;SDS011;5625;50.122;19.864;2022-07-05T09:43:16;5.67;;;5.17;;
11141;SDS011;5625;50.122;19.864;2022-07-05T09:45:56;5.97;;;5.37;;
11141;SDS011;5625;50.122;19.864;2022-07-05T09:48:28;6.20;;;5.60;;
11141;SDS011;5625;50.122;19.864;2022-07-05T09:51:07;6.13;;;5.63;;
11141;SDS011;5625;50.122;19.864;2022-07-05T09:53:56;6.17;;;5.67;;
11141;SDS011;5625;50.122;19.864;2022-07-05T09:56:42;6.43;;;5.77;;
11141;SDS011;5625;50.122;19.864;2022-07-05T09:59:12;6.27;;;5.77;;
11141;SDS011;5625;50.122;19.864;2022-07-05T10:01:42;8.37;;;7.57;;
11141;SDS011;5625;50.122;19.864;2022-07-05T10:04:10;6.60;;;6.10;;
11141;SDS011;5625;50.122;19.864;2022-07-05T10:06:39;7.60;;;6.53;;
11141;SDS011;5625;50.122;19.864;2022-07-05T10:09:09;6.37;;;5.87;;
11141;SDS011;5625;50.122;19.864;2022-07-05T10:11:39;7.23;;;6.53;;
11141;SDS011;5625;50.122;19.864;2022-07-05T10:14:12;7.47;;;6.77;;
11141;SDS011;5625;50.122;19.864;2022-07-05T10:16:50;8.20;;;7.47;;
11141;SDS011;5625;50.122;19.864;2022-07-05T10:19:23;7.53;;;6.83;;
11141;SDS011;5625;50.122;19.864;2022-07-05T10:21:56;8.47;;;7.70;;
11141;SDS011;5625;50.122;19.864;2022-07-05T10:24:44;7.80;;;6.90;;
11141;SDS011;5625;50.122;19.864;2022-07-05T10:27:14;8.70;;;7.60;;
11141;SDS011;5625;50.122;19.864;2022-07-05T10:29:43;7.77;;;7.07;;
11141;SDS011;5625;50.122;19.864;2022-07-05T10:32:13;8.20;;;6.53;;
11141;SDS011;5625;50.122;19.864;2022-07-05T10:34:43;7.30;;;6.70;;
11141;SDS011;5625;50.122;19.864;2022-07-05T10:37:20;7.77;;;7.17;;
11141;SDS011;5625;50.122;19.864;2022-07-05T10:39:50;7.37;;;6.67;;
11141;SDS011;5625;50.122;19.864;2022-07-05T10:42:19;7.90;;;7.20;;
11141;SDS011;5625;50.122;19.864;2022-07-05T10:44:48;7.87;;;7.00;;
11141;SDS011;5625;50.122;19.864;2022-07-05T10:47:18;7.83;;;7.13;;
11141;SDS011;5625;50.122;19.864;2022-07-05T10:49:59;7.13;;;6.47;;
11141;SDS011;5625;50.122;19.864;2022-07-05T10:52:31;6.30;;;5.73;;
11141;SDS011;5625;50.122;19.864;2022-07-05T11:00:45;6.70;;;6.10;;
11141;SDS011;5625;50.122;19.864;2022-07-05T11:03:35;7.07;;;6.47;;
11141;SDS011;5625;50.122;19.864;2022-07-05T11:06:04;7.77;;;7.17;;
11141;SDS011;5625;50.122;19.864;2022-07-05T11:11:35;6.00;;;5.37;;
11141;SDS011;5625;50.122;19.864;2022-07-05T11:14:29;5.57;;;5.17;;
11141;SDS011;5625;50.122;19.864;2022-07-05T11:17:12;5.87;;;5.37;;
11141;SDS011;5625;50.122;19.864;2022-07-05T11:20:14;6.27;;;5.77;;
11141;SDS011;5625;50.122;19.864;2022-07-05T11:23:02;4.83;;;4.43;;
11141;SDS011;5625;50.122;19.864;2022-07-05T11:25:32;7.40;;;4.83;;
11141;SDS011;5625;50.122;19.864;2022-07-05T11:28:06;4.90;;;4.50;;
11141;SDS011;5625;50.122;19.864;2022-07-05T11:30:46;4.63;;;4.23;;
11141;SDS011;5625;50.122;19.864;2022-07-05T11:33:26;4.10;;;3.80;;
11141;SDS011;5625;50.122;19.864;2022-07-05T11:36:00;3.93;;;3.63;;
11141;SDS011;5625;50.122;19.864;2022-07-05T11:38:30;4.10;;;3.60;;
11141;SDS011;5625;50.122;19.864;2022-07-05T11:41:18;3.97;;;3.63;;
11141;SDS011;5625;50.122;19.864;2022-07-05T11:43:54;4.50;;;4.03;;
11141;SDS011;5625;50.122;19.864;2022-07-05T11:46:24;4.57;;;4.00;;
11141;SDS011;5625;50.122;19.864;2022-07-05T11:49:20;4.53;;;4.17;;
11141;SDS011;5625;50.122;19.864;2022-07-05T11:51:54;4.03;;;3.63;;
11141;SDS011;5625;50.122;19.864;2022-07-05T11:54:23;4.53;;;4.13;;
11141;SDS011;5625;50.122;19.864;2022-07-05T11:56:52;4.37;;;4.00;;
11141;SDS011;5625;50.122;19.864;2022-07-05T11:59:24;4.03;;;3.63;;
11141;SDS011;5625;50.122;19.864;2022-07-05T12:01:54;4.10;;;3.70;;
11141;SDS011;5625;50.122;19.864;2022-07-05T12:04:24;4.47;;;3.97;;
11141;SDS011;5625;50.122;19.864;2022-07-05T12:06:54;3.80;;;3.60;;
11141;SDS011;5625;50.122;19.864;2022-07-05T12:09:24;4.30;;;4.00;;
11141;SDS011;5625;50.122;19.864;2022-07-05T12:11:53;4.00;;;3.60;;
11141;SDS011;5625;50.122;19.864;2022-07-05T12:14:46;4.80;;;3.67;;
11141;SDS011;5625;50.122;19.864;2022-07-05T12:17:16;3.93;;;3.63;;
11141;SDS011;5625;50.122;19.864;2022-07-05T12:19:51;3.90;;;3.60;;
11141;SDS011;5625;50.122;19.864;2022-07-05T12:22:32;4.40;;;4.03;;
11141;SDS011;5625;50.122;19.864;2022-07-05T12:25:01;5.13;;;3.87;;
11141;SDS011;5625;50.122;19.864;2022-07-05T12:27:34;4.73;;;4.33;;
11141;SDS011;5625;50.122;19.864;2022-07-05T12:30:03;4.47;;;4.07;;
11141;SDS011;5625;50.122;19.864;2022-07-05T12:32:37;3.80;;;3.50;;
11141;SDS011;5625;50.122;19.864;2022-07-05T12:35:28;4.10;;;3.80;;
11141;SDS011;5625;50.122;19.864;2022-07-05T12:38:03;4.10;;;3.70;;
11141;SDS011;5625;50.122;19.864;2022-07-05T12:40:32;4.50;;;4.10;;
11141;SDS011;5625;50.122;19.864;2022-07-05T12:43:02;5.63;;;4.03;;
11141;SDS011;5625;50.122;19.864;2022-07-05T12:45:32;4.60;;;3.67;;
11141;SDS011;5625;50.122;19.864;2022-07-05T12:48:02;3.37;;;3.17;;
11141;SDS011;5625;50.122;19.864;2022-07-05T12:50:43;2.90;;;2.70;;
11141;SDS011;5625;50.122;19.864;2022-07-05T12:53:34;3.50;;;2.47;;
11141;SDS011;5625;50.122;19.864;2022-07-05T12:56:22;3.07;;;2.63;;
11141;SDS011;5625;50.122;19.864;2022-07-05T12:59:28;3.23;;;2.57;;
11141;SDS011;5625;50.122;19.864;2022-07-05T13:01:56;2.97;;;2.67;;
11141;SDS011;5625;50.122;19.864;2022-07-05T13:04:25;2.77;;;2.50;;
11141;SDS011;5625;50.122;19.864;2022-07-05T13:06:53;2.60;;;2.40;;
11141;SDS011;5625;50.122;19.864;2022-07-05T13:09:36;3.37;;;1.97;;
11141;SDS011;5625;50.122;19.864;2022-07-05T13:12:05;2.67;;;2.47;;
11141;SDS011;5625;50.122;19.864;2022-07-05T13:14:39;2.30;;;2.10;;
11141;SDS011;5625;50.122;19.864;2022-07-05T13:17:08;3.93;;;2.40;;
11141;SDS011;5625;50.122;19.864;2022-07-05T13:19:38;2.53;;;2.33;;
11141;SDS011;5625;50.122;19.864;2022-07-05T13:22:07;2.47;;;2.17;;
11141;SDS011;5625;50.122;19.864;2022-07-05T13:24:39;5.23;;;2.33;;
11141;SDS011;5625;50.122;19.864;2022-07-05T13:27:09;2.40;;;2.20;;
11141;SDS011;5625;50.122;19.864;2022-07-05T13:29:39;2.83;;;2.60;;
11141;SDS011;5625;50.122;19.864;2022-07-05T13:32:07;2.43;;;2.23;;
11141;SDS011;5625;50.122;19.864;2022-07-05T13:34:35;4.13;;;2.40;;
11141;SDS011;5625;50.122;19.864;2022-07-05T13:37:04;2.60;;;2.40;;
11141;SDS011;5625;50.122;19.864;2022-07-05T13:39:32;2.60;;;2.40;;
11141;SDS011;5625;50.122;19.864;2022-07-05T13:42:01;2.83;;;2.30;;
11141;SDS011;5625;50.122;19.864;2022-07-05T13:44:32;4.10;;;2.63;;
11141;SDS011;5625;50.122;19.864;2022-07-05T13:47:01;2.73;;;2.50;;
11141;SDS011;5625;50.122;19.864;2022-07-05T13:49:30;2.43;;;2.13;;
11141;SDS011;5625;50.122;19.864;2022-07-05T13:51:58;2.60;;;2.40;;
11141;SDS011;5625;50.122;19.864;2022-07-05T13:54:27;2.83;;;2.60;;
11141;SDS011;5625;50.122;19.864;2022-07-05T13:56:56;3.17;;;2.87;;
11141;SDS011;5625;50.122;19.864;2022-07-05T13:59:25;3.23;;;2.50;;
11141;SDS011;5625;50.122;19.864;2022-07-05T14:01:53;3.80;;;2.60;;
11141;SDS011;5625;50.122;19.864;2022-07-05T14:04:23;2.73;;;2.53;;
11141;SDS011;5625;50.122;19.864;2022-07-05T14:06:54;3.77;;;2.70;;
11141;SDS011;5625;50.122;19.864;2022-07-05T14:09:22;3.40;;;2.70;;
11141;SDS011;5625;50.122;19.864;2022-07-05T14:11:54;3.60;;;2.80;;
11141;SDS011;5625;50.122;19.864;2022-07-05T14:14:22;3.40;;;2.70;;
11141;SDS011;5625;50.122;19.864;2022-07-05T14:16:52;3.40;;;3.10;;
11141;SDS011;5625;50.122;19.864;2022-07-05T14:19:20;3.10;;;2.80;;
11141;SDS011;5625;50.122;19.864;2022-07-05T14:21:48;3.20;;;3.00;;
11141;SDS011;5625;50.122;19.864;2022-07-05T14:24:16;4.00;;;2.80;;
11141;SDS011;5625;50.122;19.864;2022-07-05T14:26:44;3.20;;;2.90;;
11141;SDS011;5625;50.122;19.864;2022-07-05T14:29:12;4.77;;;3.20;;
11141;SDS011;5625;50.122;19.864;2022-07-05T14:31:40;2.97;;;2.67;;
11141;SDS011;5625;50.122;19.864;2022-07-05T14:34:10;3.10;;;2.90;;
11141;SDS011;5625;50.122;19.864;2022-07-05T14:36:38;3.23;;;2.93;;
11141;SDS011;5625;50.122;19.864;2022-07-05T14:39:06;3.23;;;2.97;;
11141;SDS011;5625;50.122;19.864;2022-07-05T14:41:43;5.13;;;3.50;;
11141;SDS011;5625;50.122;19.864;2022-07-05T14:44:14;3.57;;;3.27;;
11141;SDS011;5625;50.122;19.864;2022-07-05T14:46:42;3.40;;;3.20;;
11141;SDS011;5625;50.122;19.864;2022-07-05T14:49:11;3.33;;;3.10;;
11141;SDS011;5625;50.122;19.864;2022-07-05T14:51:39;3.50;;;3.20;;
11141;SDS011;5625;50.122;19.864;2022-07-05T14:54:07;3.57;;;3.00;;
11141;SDS011;5625;50.122;19.864;2022-07-05T14:56:35;3.40;;;3.10;;
11141;SDS011;5625;50.122;19.864;2022-07-05T14:59:03;2.93;;;2.73;;
11141;SDS011;5625;50.122;19.864;2022-07-05T15:01:32;3.57;;;3.20;;
11141;SDS011;5625;50.122;19.864;2022-07-05T15:04:03;4.80;;;3.23;;
11141;SDS011;5625;50.122;19.864;2022-07-05T15:06:33;3.70;;;3.40;;
11141;SDS011;5625;50.122;19.864;2022-07-05T15:09:01;3.80;;;3.50;;
11141;SDS011;5625;50.122;19.864;2022-07-05T15:11:29;3.50;;;3.30;;
11141;SDS011;5625;50.122;19.864;2022-07-05T15:13:57;4.37;;;3.70;;
11141;SDS011;5625;50.122;19.864;2022-07-05T15:16:26;3.93;;;3.67;;
11141;SDS011;5625;50.122;19.864;2022-07-05T15:18:55;4.77;;;4.30;;
11141;SDS011;5625;50.122;19.864;2022-07-05T15:21:23;4.47;;;3.97;;